Santa Paula, California
Current Conditions -  °F | °C
As of 3:55 AM on Monday 26 Jan 2015 (Local Time) from KCMA Reporting Station
Scattered Clouds Scattered Clouds  
Wind Chill: 14°   Ceiling: Unl
Heat Index: 14°   Visibility: 10mi
Dew Point:   Wind: 8mph
Humidity: 57%   Direction: 40°NE
Pressure: 29.96"   Gusts: NA
Location:  34.35°N, 119.05°W
Report Text: KCMA 261155Z AUTO 04007KT 10SM SCT120 14/06 A2996 RMK AO2 SLP155 T01390056 10183 20128 58013
Loading
Personal Weather Stations






























Interactive Weather Map New forecast layout! Learn more

10-Day Weather Forecast

Advertisements
Track Severe Weather on mobile